sensor_id;sensor_type;location;lat;lon;timestamp;P1;durP1;ratioP1;P2;durP2;ratioP2
19985;SDS011;10154;52.474;10.768;2023-06-22T00:02:21;11.25;;;8.15;;
19985;SDS011;10154;52.474;10.768;2023-06-22T00:04:47;11.82;;;8.70;;
19985;SDS011;10154;52.474;10.768;2023-06-22T00:07:12;12.27;;;8.48;;
19985;SDS011;10154;52.474;10.768;2023-06-22T00:09:37;10.30;;;7.93;;
19985;SDS011;10154;52.474;10.768;2023-06-22T00:12:04;14.55;;;8.90;;
19985;SDS011;10154;52.474;10.768;2023-06-22T00:14:31;13.20;;;8.77;;
19985;SDS011;10154;52.474;10.768;2023-06-22T00:16:57;12.85;;;8.52;;
19985;SDS011;10154;52.474;10.768;2023-06-22T00:19:24;15.10;;;9.80;;
19985;SDS011;10154;52.474;10.768;2023-06-22T00:21:52;16.42;;;9.07;;
19985;SDS011;10154;52.474;10.768;2023-06-22T00:24:21;12.93;;;9.27;;
19985;SDS011;10154;52.474;10.768;2023-06-22T00:26:49;14.40;;;9.45;;
19985;SDS011;10154;52.474;10.768;2023-06-22T00:29:15;13.02;;;9.27;;
19985;SDS011;10154;52.474;10.768;2023-06-22T00:31:40;10.70;;;8.20;;
19985;SDS011;10154;52.474;10.768;2023-06-22T00:34:06;12.98;;;9.48;;
19985;SDS011;10154;52.474;10.768;2023-06-22T00:36:33;17.98;;;9.05;;
19985;SDS011;10154;52.474;10.768;2023-06-22T00:38:59;14.52;;;9.30;;
19985;SDS011;10154;52.474;10.768;2023-06-22T00:41:24;11.88;;;9.07;;
19985;SDS011;10154;52.474;10.768;2023-06-22T00:43:53;12.32;;;8.88;;
19985;SDS011;10154;52.474;10.768;2023-06-22T00:46:18;13.02;;;9.30;;
19985;SDS011;10154;52.474;10.768;2023-06-22T00:48:45;14.73;;;8.60;;
19985;SDS011;10154;52.474;10.768;2023-06-22T00:51:10;12.82;;;8.88;;
19985;SDS011;10154;52.474;10.768;2023-06-22T00:53:36;11.73;;;8.20;;
19985;SDS011;10154;52.474;10.768;2023-06-22T00:56:03;13.25;;;8.65;;
19985;SDS011;10154;52.474;10.768;2023-06-22T00:58:28;14.25;;;8.60;;
19985;SDS011;10154;52.474;10.768;2023-06-22T01:00:54;12.02;;;7.90;;
19985;SDS011;10154;52.474;10.768;2023-06-22T01:03:20;12.13;;;8.15;;
19985;SDS011;10154;52.474;10.768;2023-06-22T01:05:45;14.50;;;8.55;;
19985;SDS011;10154;52.474;10.768;2023-06-22T01:13:35;14.57;;;9.05;;
19985;SDS011;10154;52.474;10.768;2023-06-22T01:16:16;11.43;;;8.20;;
19985;SDS011;10154;52.474;10.768;2023-06-22T01:18:44;13.60;;;8.63;;
19985;SDS011;10154;52.474;10.768;2023-06-22T01:21:12;11.65;;;8.45;;
19985;SDS011;10154;52.474;10.768;2023-06-22T01:29:21;12.55;;;8.52;;
19985;SDS011;10154;52.474;10.768;2023-06-22T01:31:48;12.77;;;8.02;;
19985;SDS011;10154;52.474;10.768;2023-06-22T01:34:13;12.23;;;7.82;;
19985;SDS011;10154;52.474;10.768;2023-06-22T01:36:40;11.98;;;8.70;;
19985;SDS011;10154;52.474;10.768;2023-06-22T01:39:05;13.15;;;9.63;;
19985;SDS011;10154;52.474;10.768;2023-06-22T01:41:33;16.33;;;9.70;;
19985;SDS011;10154;52.474;10.768;2023-06-22T01:43:59;15.65;;;9.50;;
19985;SDS011;10154;52.474;10.768;2023-06-22T01:46:26;11.50;;;8.88;;
19985;SDS011;10154;52.474;10.768;2023-06-22T01:48:51;12.50;;;9.07;;
19985;SDS011;10154;52.474;10.768;2023-06-22T01:51:17;11.85;;;9.18;;
19985;SDS011;10154;52.474;10.768;2023-06-22T01:53:42;12.25;;;9.15;;
19985;SDS011;10154;52.474;10.768;2023-06-22T01:56:08;11.75;;;8.50;;
19985;SDS011;10154;52.474;10.768;2023-06-22T01:58:34;13.05;;;9.40;;
19985;SDS011;10154;52.474;10.768;2023-06-22T02:01:11;11.05;;;7.93;;
19985;SDS011;10154;52.474;10.768;2023-06-22T02:03:44;11.98;;;8.35;;
19985;SDS011;10154;52.474;10.768;2023-06-22T02:06:21;11.23;;;8.45;;
19985;SDS011;10154;52.474;10.768;2023-06-22T02:08:51;13.20;;;8.73;;
19985;SDS011;10154;52.474;10.768;2023-06-22T02:11:20;11.35;;;8.65;;
19985;SDS011;10154;52.474;10.768;2023-06-22T02:13:46;17.02;;;8.98;;
19985;SDS011;10154;52.474;10.768;2023-06-22T02:16:12;18.40;;;9.57;;
19985;SDS011;10154;52.474;10.768;2023-06-22T02:18:38;14.93;;;9.30;;
19985;SDS011;10154;52.474;10.768;2023-06-22T02:21:05;11.48;;;8.88;;
19985;SDS011;10154;52.474;10.768;2023-06-22T02:23:31;11.60;;;9.10;;
19985;SDS011;10154;52.474;10.768;2023-06-22T02:25:58;13.82;;;9.32;;
19985;SDS011;10154;52.474;10.768;2023-06-22T02:28:23;12.80;;;8.63;;
19985;SDS011;10154;52.474;10.768;2023-06-22T02:30:48;12.18;;;8.10;;
19985;SDS011;10154;52.474;10.768;2023-06-22T02:33:14;11.32;;;8.75;;
19985;SDS011;10154;52.474;10.768;2023-06-22T02:35:39;13.38;;;9.52;;
19985;SDS011;10154;52.474;10.768;2023-06-22T02:38:04;12.73;;;9.43;;
19985;SDS011;10154;52.474;10.768;2023-06-22T02:40:30;13.73;;;9.10;;
19985;SDS011;10154;52.474;10.768;2023-06-22T02:42:57;11.77;;;9.15;;
19985;SDS011;10154;52.474;10.768;2023-06-22T02:45:26;14.70;;;9.73;;
19985;SDS011;10154;52.474;10.768;2023-06-22T02:47:52;11.45;;;8.70;;
19985;SDS011;10154;52.474;10.768;2023-06-22T02:50:20;11.63;;;8.07;;
19985;SDS011;10154;52.474;10.768;2023-06-22T02:52:47;11.15;;;8.27;;
19985;SDS011;10154;52.474;10.768;2023-06-22T02:55:12;15.18;;;9.25;;
19985;SDS011;10154;52.474;10.768;2023-06-22T02:57:38;14.98;;;9.60;;
19985;SDS011;10154;52.474;10.768;2023-06-22T03:00:10;13.95;;;8.75;;
19985;SDS011;10154;52.474;10.768;2023-06-22T03:02:43;12.60;;;8.52;;
19985;SDS011;10154;52.474;10.768;2023-06-22T03:05:09;12.63;;;9.00;;
19985;SDS011;10154;52.474;10.768;2023-06-22T03:07:39;13.32;;;8.55;;
19985;SDS011;10154;52.474;10.768;2023-06-22T03:10:06;12.45;;;8.65;;
19985;SDS011;10154;52.474;10.768;2023-06-22T03:12:32;15.10;;;8.93;;
19985;SDS011;10154;52.474;10.768;2023-06-22T03:14:57;14.02;;;9.25;;
19985;SDS011;10154;52.474;10.768;2023-06-22T03:17:23;14.43;;;8.68;;
19985;SDS011;10154;52.474;10.768;2023-06-22T03:19:48;12.82;;;8.93;;
19985;SDS011;10154;52.474;10.768;2023-06-22T03:22:13;12.95;;;8.77;;
19985;SDS011;10154;52.474;10.768;2023-06-22T03:24:40;12.30;;;8.25;;
19985;SDS011;10154;52.474;10.768;2023-06-22T03:27:05;11.05;;;8.90;;
19985;SDS011;10154;52.474;10.768;2023-06-22T03:29:31;10.75;;;8.15;;
19985;SDS011;10154;52.474;10.768;2023-06-22T03:31:56;12.45;;;9.10;;
19985;SDS011;10154;52.474;10.768;2023-06-22T03:34:21;12.80;;;8.90;;
19985;SDS011;10154;52.474;10.768;2023-06-22T03:36:47;13.38;;;9.35;;
19985;SDS011;10154;52.474;10.768;2023-06-22T03:39:12;12.48;;;8.77;;
19985;SDS011;10154;52.474;10.768;2023-06-22T03:41:37;12.48;;;8.48;;
19985;SDS011;10154;52.474;10.768;2023-06-22T03:44:03;12.68;;;8.45;;
19985;SDS011;10154;52.474;10.768;2023-06-22T03:46:29;12.52;;;8.70;;
19985;SDS011;10154;52.474;10.768;2023-06-22T03:48:54;12.70;;;8.18;;
19985;SDS011;10154;52.474;10.768;2023-06-22T03:51:19;11.73;;;8.27;;
19985;SDS011;10154;52.474;10.768;2023-06-22T03:53:45;12.75;;;7.80;;
19985;SDS011;10154;52.474;10.768;2023-06-22T03:56:10;10.55;;;8.35;;
19985;SDS011;10154;52.474;10.768;2023-06-22T03:58:36;14.85;;;8.63;;
19985;SDS011;10154;52.474;10.768;2023-06-22T04:01:07;11.52;;;8.40;;
19985;SDS011;10154;52.474;10.768;2023-06-22T04:03:36;13.30;;;9.07;;
19985;SDS011;10154;52.474;10.768;2023-06-22T04:06:02;15.10;;;8.93;;
19985;SDS011;10154;52.474;10.768;2023-06-22T04:08:27;12.30;;;9.20;;
19985;SDS011;10154;52.474;10.768;2023-06-22T04:10:52;14.70;;;9.77;;
19985;SDS011;10154;52.474;10.768;2023-06-22T04:13:18;14.57;;;9.40;;
19985;SDS011;10154;52.474;10.768;2023-06-22T04:15:43;14.95;;;9.15;;
19985;SDS011;10154;52.474;10.768;2023-06-22T04:18:09;13.85;;;9.48;;
19985;SDS011;10154;52.474;10.768;2023-06-22T04:20:34;14.27;;;9.07;;
19985;SDS011;10154;52.474;10.768;2023-06-22T04:23:00;14.85;;;9.85;;
19985;SDS011;10154;52.474;10.768;2023-06-22T04:25:25;13.82;;;9.43;;
19985;SDS011;10154;52.474;10.768;2023-06-22T04:27:51;13.68;;;9.20;;
19985;SDS011;10154;52.474;10.768;2023-06-22T04:30:16;13.73;;;9.38;;
19985;SDS011;10154;52.474;10.768;2023-06-22T04:32:42;13.27;;;8.82;;
19985;SDS011;10154;52.474;10.768;2023-06-22T04:35:08;10.50;;;8.27;;
19985;SDS011;10154;52.474;10.768;2023-06-22T04:37:34;13.13;;;9.15;;
19985;SDS011;10154;52.474;10.768;2023-06-22T04:39:59;14.00;;;8.52;;
19985;SDS011;10154;52.474;10.768;2023-06-22T04:42:28;12.88;;;8.73;;
19985;SDS011;10154;52.474;10.768;2023-06-22T04:44:53;12.60;;;8.32;;
19985;SDS011;10154;52.474;10.768;2023-06-22T04:47:19;13.77;;;8.40;;
19985;SDS011;10154;52.474;10.768;2023-06-22T04:49:44;12.77;;;8.55;;
19985;SDS011;10154;52.474;10.768;2023-06-22T04:52:10;15.15;;;8.50;;
19985;SDS011;10154;52.474;10.768;2023-06-22T04:54:37;13.10;;;8.60;;
19985;SDS011;10154;52.474;10.768;2023-06-22T04:57:05;12.40;;;7.68;;
19985;SDS011;10154;52.474;10.768;2023-06-22T04:59:35;10.60;;;7.65;;
19985;SDS011;10154;52.474;10.768;2023-06-22T05:02:01;12.90;;;8.60;;
19985;SDS011;10154;52.474;10.768;2023-06-22T05:04:28;10.63;;;7.60;;
19985;SDS011;10154;52.474;10.768;2023-06-22T05:06:56;12.77;;;7.18;;
19985;SDS011;10154;52.474;10.768;2023-06-22T05:09:21;9.43;;;7.07;;
19985;SDS011;10154;52.474;10.768;2023-06-22T05:11:47;14.75;;;7.55;;
19985;SDS011;10154;52.474;10.768;2023-06-22T05:14:12;10.27;;;6.60;;
19985;SDS011;10154;52.474;10.768;2023-06-22T05:16:38;11.77;;;6.85;;
19985;SDS011;10154;52.474;10.768;2023-06-22T05:19:05;10.45;;;6.43;;
19985;SDS011;10154;52.474;10.768;2023-06-22T05:21:31;10.73;;;6.70;;
19985;SDS011;10154;52.474;10.768;2023-06-22T05:23:57;10.63;;;6.72;;
19985;SDS011;10154;52.474;10.768;2023-06-22T05:26:26;9.75;;;6.40;;
19985;SDS011;10154;52.474;10.768;2023-06-22T05:28:52;7.97;;;6.72;;
19985;SDS011;10154;52.474;10.768;2023-06-22T05:31:18;10.30;;;6.18;;
19985;SDS011;10154;52.474;10.768;2023-06-22T05:33:45;11.40;;;6.55;;
19985;SDS011;10154;52.474;10.768;2023-06-22T05:36:11;8.88;;;5.82;;
19985;SDS011;10154;52.474;10.768;2023-06-22T05:38:37;9.20;;;6.20;;
19985;SDS011;10154;52.474;10.768;2023-06-22T05:41:03;9.45;;;5.80;;
19985;SDS011;10154;52.474;10.768;2023-06-22T05:43:29;9.52;;;5.68;;
19985;SDS011;10154;52.474;10.768;2023-06-22T05:45:54;9.43;;;5.82;;
19985;SDS011;10154;52.474;10.768;2023-06-22T05:48:20;9.98;;;6.13;;
19985;SDS011;10154;52.474;10.768;2023-06-22T05:50:46;8.38;;;5.93;;
19985;SDS011;10154;52.474;10.768;2023-06-22T05:53:11;11.68;;;6.40;;
19985;SDS011;10154;52.474;10.768;2023-06-22T05:55:37;16.38;;;6.78;;
19985;SDS011;10154;52.474;10.768;2023-06-22T05:58:02;11.13;;;6.10;;
19985;SDS011;10154;52.474;10.768;2023-06-22T06:00:30;9.90;;;6.40;;
19985;SDS011;10154;52.474;10.768;2023-06-22T06:02:56;8.77;;;6.25;;
19985;SDS011;10154;52.474;10.768;2023-06-22T06:05:21;10.18;;;6.75;;
19985;SDS011;10154;52.474;10.768;2023-06-22T06:07:48;8.63;;;6.13;;
19985;SDS011;10154;52.474;10.768;2023-06-22T06:10:14;11.13;;;6.35;;
19985;SDS011;10154;52.474;10.768;2023-06-22T06:12:39;9.52;;;6.13;;
19985;SDS011;10154;52.474;10.768;2023-06-22T06:15:05;11.38;;;6.22;;
19985;SDS011;10154;52.474;10.768;2023-06-22T06:17:30;10.73;;;6.40;;
19985;SDS011;10154;52.474;10.768;2023-06-22T06:19:56;12.18;;;6.43;;
19985;SDS011;10154;52.474;10.768;2023-06-22T06:22:21;9.95;;;6.20;;
19985;SDS011;10154;52.474;10.768;2023-06-22T06:24:48;8.80;;;5.75;;
19985;SDS011;10154;52.474;10.768;2023-06-22T06:27:14;7.55;;;6.15;;
19985;SDS011;10154;52.474;10.768;2023-06-22T06:29:40;11.02;;;6.15;;
19985;SDS011;10154;52.474;10.768;2023-06-22T06:32:05;8.15;;;5.65;;
19985;SDS011;10154;52.474;10.768;2023-06-22T06:34:31;10.75;;;6.63;;
19985;SDS011;10154;52.474;10.768;2023-06-22T06:36:56;8.18;;;5.65;;
19985;SDS011;10154;52.474;10.768;2023-06-22T06:39:22;9.23;;;6.95;;
19985;SDS011;10154;52.474;10.768;2023-06-22T06:41:47;8.90;;;6.10;;
19985;SDS011;10154;52.474;10.768;2023-06-22T06:44:12;9.10;;;5.88;;
19985;SDS011;10154;52.474;10.768;2023-06-22T06:46:38;11.57;;;6.20;;
19985;SDS011;10154;52.474;10.768;2023-06-22T06:49:03;7.78;;;5.47;;
19985;SDS011;10154;52.474;10.768;2023-06-22T06:51:28;8.50;;;5.90;;
19985;SDS011;10154;52.474;10.768;2023-06-22T06:53:54;6.38;;;5.25;;
19985;SDS011;10154;52.474;10.768;2023-06-22T06:56:19;10.43;;;6.10;;
19985;SDS011;10154;52.474;10.768;2023-06-22T06:58:45;7.55;;;5.60;;
19985;SDS011;10154;52.474;10.768;2023-06-22T07:01:11;9.38;;;6.13;;
19985;SDS011;10154;52.474;10.768;2023-06-22T07:03:37;12.10;;;6.03;;
19985;SDS011;10154;52.474;10.768;2023-06-22T07:06:02;12.15;;;6.38;;
19985;SDS011;10154;52.474;10.768;2023-06-22T07:08:28;8.63;;;5.93;;
19985;SDS011;10154;52.474;10.768;2023-06-22T07:10:53;12.68;;;5.93;;
19985;SDS011;10154;52.474;10.768;2023-06-22T07:13:19;7.38;;;5.55;;
19985;SDS011;10154;52.474;10.768;2023-06-22T07:15:44;9.90;;;5.80;;
19985;SDS011;10154;52.474;10.768;2023-06-22T07:18:10;10.07;;;6.40;;
19985;SDS011;10154;52.474;10.768;2023-06-22T07:20:35;7.65;;;5.65;;
19985;SDS011;10154;52.474;10.768;2023-06-22T07:23:00;11.85;;;6.22;;
19985;SDS011;10154;52.474;10.768;2023-06-22T07:25:26;10.82;;;6.10;;
19985;SDS011;10154;52.474;10.768;2023-06-22T07:28:04;11.38;;;6.43;;
19985;SDS011;10154;52.474;10.768;2023-06-22T07:30:31;10.25;;;6.53;;
19985;SDS011;10154;52.474;10.768;2023-06-22T07:32:57;7.10;;;5.65;;
19985;SDS011;10154;52.474;10.768;2023-06-22T07:35:23;8.93;;;6.00;;
19985;SDS011;10154;52.474;10.768;2023-06-22T07:37:49;10.95;;;6.38;;
19985;SDS011;10154;52.474;10.768;2023-06-22T07:40:15;10.80;;;6.43;;
19985;SDS011;10154;52.474;10.768;2023-06-22T07:42:40;11.10;;;6.80;;
19985;SDS011;10154;52.474;10.768;2023-06-22T07:45:06;8.85;;;6.32;;
19985;SDS011;10154;52.474;10.768;2023-06-22T07:47:33;9.45;;;7.10;;
19985;SDS011;10154;52.474;10.768;2023-06-22T07:50:00;14.43;;;7.20;;
19985;SDS011;10154;52.474;10.768;2023-06-22T07:52:26;10.77;;;7.28;;
19985;SDS011;10154;52.474;10.768;2023-06-22T07:54:52;19.55;;;7.68;;
19985;SDS011;10154;52.474;10.768;2023-06-22T07:57:17;13.65;;;7.75;;
19985;SDS011;10154;52.474;10.768;2023-06-22T07:59:42;11.77;;;7.32;;
19985;SDS011;10154;52.474;10.768;2023-06-22T08:02:08;10.88;;;6.90;;
19985;SDS011;10154;52.474;10.768;2023-06-22T08:04:34;10.25;;;7.05;;
19985;SDS011;10154;52.474;10.768;2023-06-22T08:07:00;11.02;;;7.60;;
19985;SDS011;10154;52.474;10.768;2023-06-22T08:09:28;10.32;;;6.57;;
19985;SDS011;10154;52.474;10.768;2023-06-22T08:11:54;15.25;;;7.68;;
19985;SDS011;10154;52.474;10.768;2023-06-22T08:14:21;13.95;;;7.35;;
19985;SDS011;10154;52.474;10.768;2023-06-22T08:16:47;13.18;;;6.88;;
19985;SDS011;10154;52.474;10.768;2023-06-22T08:19:12;9.02;;;7.00;;
19985;SDS011;10154;52.474;10.768;2023-06-22T08:21:38;11.07;;;7.72;;
19985;SDS011;10154;52.474;10.768;2023-06-22T08:24:03;12.07;;;8.00;;
19985;SDS011;10154;52.474;10.768;2023-06-22T08:26:29;12.05;;;7.80;;
19985;SDS011;10154;52.474;10.768;2023-06-22T08:28:54;10.52;;;8.05;;
19985;SDS011;10154;52.474;10.768;2023-06-22T08:31:19;11.40;;;8.57;;
19985;SDS011;10154;52.474;10.768;2023-06-22T08:33:45;11.40;;;8.55;;
19985;SDS011;10154;52.474;10.768;2023-06-22T08:36:11;13.43;;;8.20;;
19985;SDS011;10154;52.474;10.768;2023-06-22T08:38:38;11.57;;;7.75;;
19985;SDS011;10154;52.474;10.768;2023-06-22T08:41:03;9.70;;;8.02;;
19985;SDS011;10154;52.474;10.768;2023-06-22T08:43:28;16.00;;;9.20;;
19985;SDS011;10154;52.474;10.768;2023-06-22T08:45:54;11.60;;;8.35;;
19985;SDS011;10154;52.474;10.768;2023-06-22T08:48:20;12.00;;;7.13;;
19985;SDS011;10154;52.474;10.768;2023-06-22T08:50:46;11.68;;;8.02;;
19985;SDS011;10154;52.474;10.768;2023-06-22T08:53:11;10.82;;;8.20;;
19985;SDS011;10154;52.474;10.768;2023-06-22T08:55:36;12.32;;;8.00;;
19985;SDS011;10154;52.474;10.768;2023-06-22T08:58:02;10.93;;;8.52;;
19985;SDS011;10154;52.474;10.768;2023-06-22T09:00:28;12.25;;;9.23;;
19985;SDS011;10154;52.474;10.768;2023-06-22T09:02:57;11.90;;;8.75;;
19985;SDS011;10154;52.474;10.768;2023-06-22T09:05:23;11.77;;;8.82;;
19985;SDS011;10154;52.474;10.768;2023-06-22T09:07:51;11.45;;;9.23;;
19985;SDS011;10154;52.474;10.768;2023-06-22T09:10:16;11.77;;;8.43;;
19985;SDS011;10154;52.474;10.768;2023-06-22T09:12:41;13.88;;;8.25;;
19985;SDS011;10154;52.474;10.768;2023-06-22T09:15:07;10.88;;;8.65;;
19985;SDS011;10154;52.474;10.768;2023-06-22T09:17:33;15.57;;;8.93;;
19985;SDS011;10154;52.474;10.768;2023-06-22T09:19:59;12.52;;;9.43;;
19985;SDS011;10154;52.474;10.768;2023-06-22T09:22:24;10.48;;;8.35;;
19985;SDS011;10154;52.474;10.768;2023-06-22T09:24:54;13.30;;;9.18;;
19985;SDS011;10154;52.474;10.768;2023-06-22T09:27:20;11.68;;;9.02;;
19985;SDS011;10154;52.474;10.768;2023-06-22T09:29:45;10.50;;;8.95;;
19985;SDS011;10154;52.474;10.768;2023-06-22T09:32:11;11.15;;;8.90;;
19985;SDS011;10154;52.474;10.768;2023-06-22T09:34:36;10.95;;;9.60;;
19985;SDS011;10154;52.474;10.768;2023-06-22T09:37:01;12.23;;;9.60;;
19985;SDS011;10154;52.474;10.768;2023-06-22T09:39:27;14.18;;;8.93;;
19985;SDS011;10154;52.474;10.768;2023-06-22T09:41:52;9.98;;;8.40;;
19985;SDS011;10154;52.474;10.768;2023-06-22T09:44:17;14.15;;;9.15;;
19985;SDS011;10154;52.474;10.768;2023-06-22T09:46:43;14.15;;;9.60;;
19985;SDS011;10154;52.474;10.768;2023-06-22T09:49:08;11.93;;;8.73;;
19985;SDS011;10154;52.474;10.768;2023-06-22T09:51:34;11.25;;;9.18;;
19985;SDS011;10154;52.474;10.768;2023-06-22T09:53:59;12.35;;;9.18;;
19985;SDS011;10154;52.474;10.768;2023-06-22T09:56:25;11.80;;;10.05;;
19985;SDS011;10154;52.474;10.768;2023-06-22T09:58:53;12.60;;;9.90;;
19985;SDS011;10154;52.474;10.768;2023-06-22T10:01:18;14.70;;;9.88;;
19985;SDS011;10154;52.474;10.768;2023-06-22T10:03:45;15.27;;;10.27;;
19985;SDS011;10154;52.474;10.768;2023-06-22T10:06:11;13.05;;;9.88;;
19985;SDS011;10154;52.474;10.768;2023-06-22T10:08:36;10.95;;;9.32;;
19985;SDS011;10154;52.474;10.768;2023-06-22T10:11:02;11.93;;;9.35;;
19985;SDS011;10154;52.474;10.768;2023-06-22T10:13:28;10.45;;;8.88;;
19985;SDS011;10154;52.474;10.768;2023-06-22T10:15:54;11.18;;;9.10;;
19985;SDS011;10154;52.474;10.768;2023-06-22T10:18:21;10.88;;;9.27;;
19985;SDS011;10154;52.474;10.768;2023-06-22T10:20:50;14.10;;;9.68;;
19985;SDS011;10154;52.474;10.768;2023-06-22T10:23:17;12.10;;;9.02;;
19985;SDS011;10154;52.474;10.768;2023-06-22T10:25:43;10.95;;;8.85;;
19985;SDS011;10154;52.474;10.768;2023-06-22T10:28:08;11.57;;;9.50;;
19985;SDS011;10154;52.474;10.768;2023-06-22T10:30:34;10.55;;;9.38;;
19985;SDS011;10154;52.474;10.768;2023-06-22T10:32:59;13.23;;;9.40;;
19985;SDS011;10154;52.474;10.768;2023-06-22T10:35:24;13.75;;;9.63;;
19985;SDS011;10154;52.474;10.768;2023-06-22T10:37:50;9.80;;;8.75;;
19985;SDS011;10154;52.474;10.768;2023-06-22T10:40:16;12.93;;;9.40;;
19985;SDS011;10154;52.474;10.768;2023-06-22T10:42:43;10.77;;;9.13;;
19985;SDS011;10154;52.474;10.768;2023-06-22T10:45:09;13.35;;;9.80;;
19985;SDS011;10154;52.474;10.768;2023-06-22T10:47:34;10.73;;;9.52;;
19985;SDS011;10154;52.474;10.768;2023-06-22T10:50:00;11.27;;;9.55;;
19985;SDS011;10154;52.474;10.768;2023-06-22T10:52:26;12.63;;;9.23;;
19985;SDS011;10154;52.474;10.768;2023-06-22T10:54:51;11.18;;;9.07;;
19985;SDS011;10154;52.474;10.768;2023-06-22T10:57:17;10.50;;;9.18;;
19985;SDS011;10154;52.474;10.768;2023-06-22T10:59:43;12.65;;;8.55;;
19985;SDS011;10154;52.474;10.768;2023-06-22T11:02:08;12.18;;;8.10;;
19985;SDS011;10154;52.474;10.768;2023-06-22T11:04:33;11.25;;;8.55;;
19985;SDS011;10154;52.474;10.768;2023-06-22T11:06:59;11.88;;;8.35;;
19985;SDS011;10154;52.474;10.768;2023-06-22T11:09:24;12.63;;;9.35;;
19985;SDS011;10154;52.474;10.768;2023-06-22T11:11:50;10.13;;;8.52;;
19985;SDS011;10154;52.474;10.768;2023-06-22T11:14:18;10.57;;;8.95;;
19985;SDS011;10154;52.474;10.768;2023-06-22T11:16:44;10.63;;;8.77;;
19985;SDS011;10154;52.474;10.768;2023-06-22T11:19:09;9.30;;;8.20;;
19985;SDS011;10154;52.474;10.768;2023-06-22T11:21:34;11.38;;;8.40;;
19985;SDS011;10154;52.474;10.768;2023-06-22T11:24:00;9.45;;;7.78;;
19985;SDS011;10154;52.474;10.768;2023-06-22T11:26:25;9.20;;;8.20;;
19985;SDS011;10154;52.474;10.768;2023-06-22T11:28:54;10.32;;;8.15;;
19985;SDS011;10154;52.474;10.768;2023-06-22T11:31:19;15.88;;;9.20;;
19985;SDS011;10154;52.474;10.768;2023-06-22T11:33:45;10.15;;;8.63;;
19985;SDS011;10154;52.474;10.768;2023-06-22T11:36:12;13.27;;;8.15;;
19985;SDS011;10154;52.474;10.768;2023-06-22T11:38:37;9.38;;;8.45;;
19985;SDS011;10154;52.474;10.768;2023-06-22T11:41:05;11.07;;;8.20;;
19985;SDS011;10154;52.474;10.768;2023-06-22T11:43:30;11.77;;;8.52;;
19985;SDS011;10154;52.474;10.768;2023-06-22T11:45:56;13.18;;;9.57;;
19985;SDS011;10154;52.474;10.768;2023-06-22T11:48:22;10.60;;;8.93;;
19985;SDS011;10154;52.474;10.768;2023-06-22T11:50:50;11.82;;;9.30;;
19985;SDS011;10154;52.474;10.768;2023-06-22T11:53:16;10.50;;;9.40;;
19985;SDS011;10154;52.474;10.768;2023-06-22T11:55:42;11.98;;;9.63;;
19985;SDS011;10154;52.474;10.768;2023-06-22T11:58:08;9.43;;;8.32;;
19985;SDS011;10154;52.474;10.768;2023-06-22T12:00:33;11.05;;;9.07;;
19985;SDS011;10154;52.474;10.768;2023-06-22T12:02:59;10.38;;;8.45;;
19985;SDS011;10154;52.474;10.768;2023-06-22T12:05:24;9.95;;;8.95;;
19985;SDS011;10154;52.474;10.768;2023-06-22T12:07:50;13.50;;;9.55;;
19985;SDS011;10154;52.474;10.768;2023-06-22T12:10:17;13.18;;;9.32;;
19985;SDS011;10154;52.474;10.768;2023-06-22T12:12:42;10.90;;;8.95;;
19985;SDS011;10154;52.474;10.768;2023-06-22T12:15:11;10.20;;;8.93;;
19985;SDS011;10154;52.474;10.768;2023-06-22T12:17:37;14.63;;;9.20;;
19985;SDS011;10154;52.474;10.768;2023-06-22T12:20:02;10.27;;;8.77;;
19985;SDS011;10154;52.474;10.768;2023-06-22T12:22:31;12.95;;;9.07;;
19985;SDS011;10154;52.474;10.768;2023-06-22T12:24:57;11.00;;;8.75;;
19985;SDS011;10154;52.474;10.768;2023-06-22T12:27:22;9.27;;;8.38;;
19985;SDS011;10154;52.474;10.768;2023-06-22T12:29:48;11.35;;;8.90;;
19985;SDS011;10154;52.474;10.768;2023-06-22T12:32:14;11.43;;;8.48;;
19985;SDS011;10154;52.474;10.768;2023-06-22T12:34:41;9.60;;;8.48;;
19985;SDS011;10154;52.474;10.768;2023-06-22T12:37:07;9.52;;;7.93;;
19985;SDS011;10154;52.474;10.768;2023-06-22T12:39:32;12.52;;;8.60;;
19985;SDS011;10154;52.474;10.768;2023-06-22T12:41:58;9.07;;;8.15;;
19985;SDS011;10154;52.474;10.768;2023-06-22T12:44:23;9.80;;;7.85;;
19985;SDS011;10154;52.474;10.768;2023-06-22T12:46:49;8.55;;;7.63;;
19985;SDS011;10154;52.474;10.768;2023-06-22T12:49:14;8.93;;;7.55;;
19985;SDS011;10154;52.474;10.768;2023-06-22T12:51:40;9.90;;;7.72;;
19985;SDS011;10154;52.474;10.768;2023-06-22T12:54:07;8.00;;;7.22;;
19985;SDS011;10154;52.474;10.768;2023-06-22T12:56:33;7.88;;;6.90;;
19985;SDS011;10154;52.474;10.768;2023-06-22T12:58:58;7.50;;;6.43;;
19985;SDS011;10154;52.474;10.768;2023-06-22T13:01:26;11.95;;;6.65;;
19985;SDS011;10154;52.474;10.768;2023-06-22T13:03:52;9.73;;;6.43;;
19985;SDS011;10154;52.474;10.768;2023-06-22T13:06:17;9.73;;;6.20;;
19985;SDS011;10154;52.474;10.768;2023-06-22T13:08:42;7.40;;;6.45;;
19985;SDS011;10154;52.474;10.768;2023-06-22T13:11:08;9.88;;;6.75;;
19985;SDS011;10154;52.474;10.768;2023-06-22T13:13:33;8.32;;;5.97;;
19985;SDS011;10154;52.474;10.768;2023-06-22T13:15:59;8.60;;;5.97;;
19985;SDS011;10154;52.474;10.768;2023-06-22T13:18:24;9.52;;;6.43;;
19985;SDS011;10154;52.474;10.768;2023-06-22T13:20:49;12.00;;;6.60;;
19985;SDS011;10154;52.474;10.768;2023-06-22T13:23:15;8.05;;;6.60;;
19985;SDS011;10154;52.474;10.768;2023-06-22T13:25:40;7.22;;;6.20;;
19985;SDS011;10154;52.474;10.768;2023-06-22T13:28:05;11.48;;;7.32;;
19985;SDS011;10154;52.474;10.768;2023-06-22T13:30:31;7.28;;;6.32;;
19985;SDS011;10154;52.474;10.768;2023-06-22T13:32:57;9.50;;;6.70;;
19985;SDS011;10154;52.474;10.768;2023-06-22T13:35:22;10.18;;;7.05;;
19985;SDS011;10154;52.474;10.768;2023-06-22T13:37:47;8.13;;;7.03;;
19985;SDS011;10154;52.474;10.768;2023-06-22T13:40:13;7.38;;;6.25;;
19985;SDS011;10154;52.474;10.768;2023-06-22T13:42:38;7.53;;;6.38;;
19985;SDS011;10154;52.474;10.768;2023-06-22T13:45:04;8.35;;;6.68;;
19985;SDS011;10154;52.474;10.768;2023-06-22T13:47:30;7.80;;;6.97;;
19985;SDS011;10154;52.474;10.768;2023-06-22T13:49:55;9.57;;;6.68;;
19985;SDS011;10154;52.474;10.768;2023-06-22T13:52:22;10.75;;;6.70;;
19985;SDS011;10154;52.474;10.768;2023-06-22T13:54:48;9.13;;;6.55;;
19985;SDS011;10154;52.474;10.768;2023-06-22T13:57:13;9.00;;;6.47;;
19985;SDS011;10154;52.474;10.768;2023-06-22T13:59:38;9.98;;;6.75;;
19985;SDS011;10154;52.474;10.768;2023-06-22T14:02:04;7.70;;;6.43;;
19985;SDS011;10154;52.474;10.768;2023-06-22T14:04:29;7.53;;;6.43;;
19985;SDS011;10154;52.474;10.768;2023-06-22T14:06:55;8.48;;;7.07;;
19985;SDS011;10154;52.474;10.768;2023-06-22T14:09:21;13.00;;;6.70;;
19985;SDS011;10154;52.474;10.768;2023-06-22T14:11:46;8.18;;;6.55;;
19985;SDS011;10154;52.474;10.768;2023-06-22T14:14:11;7.60;;;6.05;;
19985;SDS011;10154;52.474;10.768;2023-06-22T14:16:37;9.20;;;7.07;;
19985;SDS011;10154;52.474;10.768;2023-06-22T14:19:02;6.30;;;5.70;;
19985;SDS011;10154;52.474;10.768;2023-06-22T14:21:27;7.28;;;6.55;;
19985;SDS011;10154;52.474;10.768;2023-06-22T14:23:53;9.20;;;6.60;;
19985;SDS011;10154;52.474;10.768;2023-06-22T14:26:18;8.15;;;6.07;;
19985;SDS011;10154;52.474;10.768;2023-06-22T14:28:47;7.35;;;6.65;;